Luminous Kobe-2 — JJ3868 — position and weather

sailwx.info

Track history (hours):
 
Tides and Currents Weather Stations Pressure Air Temp Water Temp Dewpoint Dewpoint Depression Visibility Wind Speed Wind Dir Waves Ship Positions

Luminous Kobe-2

Last reported at 2017-Apr-28 10:00 UTC. Time now 2017-Apr-28 10:24 UTC.
Position N 34°41' E 135°11'.

Length 105 m; draft 4.5 m.

Type: Passenger vessel. MMSI: 431000469.

Date/timePositionNaut miles runAvg speedWind from/ knotsBaromVisibWave heightAir tempDewpointWater temp
2017-Apr-28 10:00N 34°41' E 135°11'0 0.0
2017-Apr-28 09:30N 34°41' E 135°11'1 2.7
2017-Apr-28 09:00N 34°40' E 135°11'4 7.1
2017-Apr-28 08:30N 34°38' E 135°08'4 8.5
2017-Apr-28 08:00N 34°41' E 135°11'0 0.0
2017-Apr-28 07:25N 34°41' E 135°11'0 0.0
2017-Apr-28 06:49N 34°41' E 135°11'0 0.0
2017-Apr-28 06:25N 34°41' E 135°11'0 0.0
2017-Apr-28 05:49N 34°41' E 135°11'0 0.0
2017-Apr-28 05:19N 34°41' E 135°11'0 0.0
2017-Apr-28 04:56N 34°41' E 135°11'3 6.4
2017-Apr-28 04:31N 34°38' E 135°11'3 6.1
2017-Apr-28 04:00N 34°37' E 135°08'5 9.0
2017-Apr-28 03:30N 34°37' E 135°13'4 8.2
2017-Apr-28 03:00N 34°41' E 135°11'0 0.0
2017-Apr-28 02:30N 34°41' E 135°11'0 0.0
2017-Apr-28 01:48N 34°41' E 135°11'0 0.0
2017-Apr-28 01:30N 34°41' E 135°11'0 0.0
2017-Apr-28 00:48N 34°41' E 135°11'0 0.0
2017-Apr-28 00:30N 34°41' E 135°11'0 0.0
2017-Apr-28 00:00N 34°41' E 135°11'0 0.0
2017-Apr-27 23:30N 34°41' E 135°11'0 0.0
2017-Apr-27 23:00N 34°41' E 135°11'0 0.0
2017-Apr-27 22:24N 34°41' E 135°11'0 0.0
2017-Apr-27 22:00N 34°41' E 135°11'0 0.0
2017-Apr-27 21:30N 34°41' E 135°11'0 0.0
2017-Apr-27 20:54N 34°41' E 135°11'0 0.0
2017-Apr-27 20:30N 34°41' E 135°11'0 0.0
2017-Apr-27 19:54N 34°41' E 135°11'0 0.0
2017-Apr-27 19:24N 34°41' E 135°11'0 0.0
2017-Apr-27 19:00N 34°41' E 135°11'0 0.0
2017-Apr-27 18:30N 34°41' E 135°11'0 0.0
2017-Apr-27 18:00N 34°41' E 135°11'0 0.0
2017-Apr-27 17:30N 34°41' E 135°11'0 0.0
2017-Apr-27 17:00N 34°41' E 135°11'0 0.0
2017-Apr-27 16:30N 34°41' E 135°11'0 0.0
2017-Apr-27 16:00N 34°41' E 135°11'0 0.0
2017-Apr-27 15:30N 34°41' E 135°11'0 0.0
2017-Apr-27 15:00N 34°41' E 135°11'0 0.0
2017-Apr-27 14:00N 34°41' E 135°11'0 0.0
2017-Apr-27 13:30N 34°41' E 135°11'0 0.0
2017-Apr-27 13:00N 34°41' E 135°11'0 0.0
2017-Apr-27 12:30N 34°41' E 135°11'1 2.6
2017-Apr-27 12:00N 34°40' E 135°11'510.6
2017-Apr-27 11:30N 34°36' E 135°07'611.0
2017-Apr-27 11:00N 34°37' E 135°00'510.8
2017-Apr-27 10:31N 34°37' E 135°07'510.9
2017-Apr-27 10:00N 34°41' E 135°11'0 0.0
2017-Apr-27 09:16N 34°41' E 135°11'2 6.5
2017-Apr-27 09:00N 34°39' E 135°11'3 6.7
2017-Apr-27 08:30N 34°38' E 135°08'4 8.8
2017-Apr-27 08:00N 34°41' E 135°11'0 0.0
2017-Apr-27 07:26N 34°41' E 135°11'0 0.0
2017-Apr-27 06:44N 34°41' E 135°11'0 0.0
2017-Apr-27 06:20N 34°41' E 135°11'0 0.0
2017-Apr-27 05:56N 34°41' E 135°11'0 0.0
2017-Apr-27 05:14N 34°41' E 135°11'0 0.0
2017-Apr-27 04:55N 34°41' E 135°11'3 6.5
2017-Apr-27 04:30N 34°38' E 135°11'4 7.3
2017-Apr-27 04:00N 34°37' E 135°07'510.5
2017-Apr-27 03:30N 34°37' E 135°13'4 8.2
2017-Apr-27 03:00N 34°41' E 135°11'0 0.0
2017-Apr-27 02:27N 34°41' E 135°11'0 0.0
2017-Apr-27 01:57N 34°41' E 135°11'0 0.0
2017-Apr-27 01:27N 34°41' E 135°11'0 0.0
2017-Apr-27 00:57N 34°41' E 135°11'0 0.0
2017-Apr-27 00:27N 34°41' E 135°11'0 0.0
2017-Apr-26 23:51N 34°41' E 135°11'0 0.0
2017-Apr-26 23:27N 34°41' E 135°11'0 0.0
2017-Apr-26 22:57N 34°41' E 135°11'0 0.0
2017-Apr-26 22:21N 34°41' E 135°11'0 0.0
2017-Apr-26 21:51N 34°41' E 135°11'0 0.0
2017-Apr-26 21:27N 34°41' E 135°11'0 0.0
2017-Apr-26 20:57N 34°41' E 135°11'0 0.0
2017-Apr-26 20:27N 34°41' E 135°11'0 0.0
2017-Apr-26 19:57N 34°41' E 135°11'0 0.0
2017-Apr-26 19:15N 34°41' E 135°11'0 0.0
2017-Apr-26 18:57N 34°41' E 135°11'0 0.0
2017-Apr-26 18:27N 34°41' E 135°11'0 0.0
2017-Apr-26 17:57N 34°41' E 135°11'0 0.0
2017-Apr-26 17:27N 34°41' E 135°11'0 0.0
2017-Apr-26 16:57N 34°41' E 135°11'0 0.0
2017-Apr-26 16:27N 34°41' E 135°11'0 0.0
2017-Apr-26 15:57N 34°41' E 135°11'0 0.0
2017-Apr-26 15:27N 34°41' E 135°11'0 0.0
2017-Apr-26 14:09N 34°41' E 135°11'0 0.0
2017-Apr-26 13:27N 34°41' E 135°11'0 0.0
2017-Apr-26 12:57N 34°41' E 135°11'0 0.0
2017-Apr-26 12:21N 34°41' E 135°11'1 3.7
2017-Apr-26 12:00N 34°40' E 135°11'510.3
2017-Apr-26 11:30N 34°36' E 135°07'611.3
2017-Apr-26 10:59N 34°37' E 134°60'611.6
2017-Apr-26 10:30N 34°37' E 135°07'510.8
2017-Apr-26 10:00N 34°41' E 135°11'0 0.0
2017-Apr-26 09:17N 34°41' E 135°11'2 5.6
2017-Apr-26 09:00N 34°39' E 135°11'3 5.9
2017-Apr-26 08:29N 34°38' E 135°08'4 8.5
2017-Apr-26 08:00N 34°41' E 135°11'0 0.0
2017-Apr-26 07:27N 34°41' E 135°11'0 0.0
2017-Apr-26 06:57N 34°41' E 135°11'0 0.0
2017-Apr-26 06:27N 34°41' E 135°11'0 0.0
2017-Apr-26 05:57N 34°41' E 135°11'0 0.0
2017-Apr-26 05:15N 34°41' E 135°11'0 0.0
2017-Apr-26 04:57N 34°41' E 135°11'3 6.3
2017-Apr-26 04:30N 34°38' E 135°11'2 3.2
2017-Apr-26 03:59N 34°37' E 135°10'3 5.4
2017-Apr-26 03:30N 34°37' E 135°13'4 7.7
2017-Apr-26 03:00N 34°41' E 135°11'0 0.0
2017-Apr-26 02:29N 34°41' E 135°11'0 0.0
2017-Apr-26 01:59N 34°41' E 135°11'0 0.0
2017-Apr-26 01:29N 34°41' E 135°11'0 0.0
2017-Apr-26 00:59N 34°41' E 135°11'0 0.0
2017-Apr-26 00:29N 34°41' E 135°11'0 0.0
2017-Apr-25 23:53N 34°41' E 135°11'0 0.0
2017-Apr-25 23:23N 34°41' E 135°11'0 0.0
2017-Apr-25 22:53N 34°41' E 135°11'0 0.0
2017-Apr-25 22:29N 34°41' E 135°11'0 0.0
2017-Apr-25 21:59N 34°41' E 135°11'0 0.0
2017-Apr-25 21:29N 34°41' E 135°11'0 0.0
2017-Apr-25 20:35N 34°41' E 135°11'0 0.0
2017-Apr-25 20:29N 34°41' E 135°11'0 0.0
2017-Apr-25 19:59N 34°41' E 135°11'0 0.0
2017-Apr-25 19:29N 34°41' E 135°11'0 0.0
2017-Apr-25 18:59N 34°41' E 135°11'0 0.0
2017-Apr-25 18:29N 34°41' E 135°11'0 0.0
2017-Apr-25 17:53N 34°41' E 135°11'0 0.0
2017-Apr-25 17:29N 34°41' E 135°11'0 0.0
2017-Apr-25 16:59N 34°41' E 135°11'0 0.0
2017-Apr-25 16:29N 34°41' E 135°11'0 0.0
2017-Apr-25 15:41N 34°41' E 135°11'0 0.0
2017-Apr-25 15:29N 34°41' E 135°11'0 0.0
2017-Apr-25 14:53N 34°41' E 135°11'0 0.0
2017-Apr-25 13:59N 34°41' E 135°11'0 0.0
2017-Apr-25 13:29N 34°41' E 135°11'0 0.0
2017-Apr-25 12:59N 34°41' E 135°11'0 0.0
2017-Apr-25 12:29N 34°41' E 135°11'1 2.6
2017-Apr-25 12:00N 34°40' E 135°11'511.0
2017-Apr-25 11:30N 34°35' E 135°07'612.8
2017-Apr-25 11:00N 34°37' E 134°60'612.1
2017-Apr-25 10:30N 34°37' E 135°07'510.3
2017-Apr-25 10:00N 34°41' E 135°11'0 0.0
2017-Apr-25 09:28N 34°41' E 135°11'1 2.7
2017-Apr-25 09:00N 34°40' E 135°11'4 7.3
2017-Apr-25 08:30N 34°37' E 135°08'4 8.9
2017-Apr-25 08:00N 34°41' E 135°11'0 0.0
2017-Apr-25 07:19N 34°41' E 135°11'0 0.0
2017-Apr-25 06:55N 34°41' E 135°11'0 0.0
2017-Apr-25 06:19N 34°41' E 135°11'0 0.0
2017-Apr-25 05:55N 34°41' E 135°11'0 0.0
2017-Apr-25 05:19N 34°41' E 135°11'0 0.0
2017-Apr-25 04:55N 34°41' E 135°11'3 6.3
2017-Apr-25 04:30N 34°38' E 135°11'3 5.5
2017-Apr-25 04:00N 34°37' E 135°08'4 7.6
2017-Apr-25 03:30N 34°37' E 135°12'3 7.1
2017-Apr-25 03:00N 34°41' E 135°11'0 0.0
2017-Apr-25 02:30N 34°41' E 135°11'2 3.3
2017-Apr-25 02:00N 34°39' E 135°11'1 2.2
2017-Apr-25 01:30N 34°40' E 135°12'1 1.0
2017-Apr-25 00:55N 34°41' E 135°11'0 0.0
2017-Apr-25 00:25N 34°41' E 135°11'0 0.0
2017-Apr-24 23:55N 34°41' E 135°11'0 0.0
2017-Apr-24 23:25N 34°41' E 135°11'0 0.0
2017-Apr-24 22:55N 34°41' E 135°11'0 0.0
2017-Apr-24 22:25N 34°41' E 135°11'0 0.0
2017-Apr-24 21:49N 34°41' E 135°11'0 0.0
2017-Apr-24 21:25N 34°41' E 135°11'0 0.0
2017-Apr-24 20:55N 34°41' E 135°11'0 0.0
2017-Apr-24 20:25N 34°41' E 135°11'0 0.0
2017-Apr-24 19:49N 34°41' E 135°11'0 0.0
2017-Apr-24 19:25N 34°41' E 135°11'0 0.0
2017-Apr-24 18:55N 34°41' E 135°11'0 0.0
2017-Apr-24 18:25N 34°41' E 135°11'0 0.0
2017-Apr-24 17:55N 34°41' E 135°11'0 0.0
2017-Apr-24 17:25N 34°41' E 135°11'0 0.0
2017-Apr-24 16:55N 34°41' E 135°11'0 0.0
2017-Apr-24 16:13N 34°41' E 135°11'0 0.0
2017-Apr-24 15:55N 34°41' E 135°11'0 0.0
2017-Apr-24 15:25N 34°41' E 135°11'0 0.0
2017-Apr-24 14:55N 34°41' E 135°11'0 0.0
2017-Apr-24 14:25N 34°41' E 135°11'0 0.0
2017-Apr-24 13:25N 34°41' E 135°11'0 0.0
2017-Apr-24 12:55N 34°41' E 135°11'0 0.0
2017-Apr-24 12:25N 34°41' E 135°11'2 3.8
2017-Apr-24 12:00N 34°39' E 135°11'510.5
2017-Apr-24 11:31N 34°36' E 135°07'612.3
2017-Apr-24 11:00N 34°37' E 134°59'713.2
2017-Apr-24 10:30N 34°37' E 135°07'510.0
2017-Apr-24 10:00N 34°41' E 135°11'0 0.0
2017-Apr-24 09:30N 34°41' E 135°11'1 2.8
2017-Apr-24 09:00N 34°39' E 135°11'3 6.2
2017-Apr-24 08:29N 34°38' E 135°08'4 8.6
2017-Apr-24 08:01N 34°41' E 135°11'0 0.0
2017-Apr-24 07:25N 34°41' E 135°11'0 0.0
2017-Apr-24 06:55N 34°41' E 135°11'0 0.0
2017-Apr-24 06:25N 34°41' E 135°11'0 0.0
2017-Apr-24 05:55N 34°41' E 135°11'0 0.0
2017-Apr-24 05:07N 34°41' E 135°11'0 0.0
2017-Apr-24 04:56N 34°41' E 135°11'3 6.7
2017-Apr-24 04:30N 34°38' E 135°11'2 3.8
2017-Apr-24 04:00N 34°37' E 135°09'4 7.1
2017-Apr-24 03:30N 34°37' E 135°14'4 8.2
2017-Apr-24 03:00N 34°41' E 135°11'0 0.0
2017-Apr-24 02:15N 34°41' E 135°11'0 0.0
2017-Apr-24 01:57N 34°41' E 135°11'0 0.0
2017-Apr-24 01:27N 34°41' E 135°11'0 0.0
2017-Apr-24 00:57N 34°41' E 135°11'0 0.0
2017-Apr-24 00:27N 34°41' E 135°11'0 0.0
2017-Apr-23 23:57N 34°41' E 135°11'0 0.0
2017-Apr-23 23:21N 34°41' E 135°11'0 0.0
2017-Apr-23 22:57N 34°41' E 135°11'0 0.0
2017-Apr-23 22:21N 34°41' E 135°11'0 0.0
2017-Apr-23 21:51N 34°41' E 135°11'0 0.0
2017-Apr-23 21:27N 34°41' E 135°11'0 0.0
2017-Apr-23 20:57N 34°41' E 135°11'0 0.0
2017-Apr-23 20:03N 34°41' E 135°11'0 0.0
2017-Apr-23 19:57N 34°41' E 135°11'0 0.0
2017-Apr-23 19:27N 34°41' E 135°11'0 0.0
2017-Apr-23 18:51N 34°41' E 135°11'0 0.0
2017-Apr-23 18:27N 34°41' E 135°11'0 0.0
2017-Apr-23 17:57N 34°41' E 135°11'0 0.0
2017-Apr-23 17:27N 34°41' E 135°11'0 0.0
2017-Apr-23 16:57N 34°41' E 135°11'0 0.0
2017-Apr-23 16:27N 34°41' E 135°11'0 0.0
2017-Apr-23 15:51N 34°41' E 135°11'0 0.0
2017-Apr-23 15:27N 34°41' E 135°11'0 0.0
2017-Apr-23 14:51N 34°41' E 135°11'0 0.0
2017-Apr-23 13:57N 34°41' E 135°11'0 0.0
2017-Apr-23 13:27N 34°41' E 135°11'0 0.0
2017-Apr-23 12:57N 34°41' E 135°11'0 0.0
2017-Apr-23 12:27N 34°41' E 135°11'1 2.9
2017-Apr-23 12:00N 34°40' E 135°11'714.2
2017-Apr-23 11:30N 34°35' E 135°05'5 9.3
2017-Apr-23 11:00N 34°37' E 135°00'815.4
2017-Apr-23 10:30N 34°38' E 135°10'3 6.9
2017-Apr-23 10:00N 34°41' E 135°11'0 0.0
2017-Apr-23 09:21N 34°41' E 135°11'0 0.0
2017-Apr-23 08:57N 34°41' E 135°11'3 6.0
2017-Apr-23 08:30N 34°38' E 135°11'3 5.6
2017-Apr-23 08:00N 34°37' E 135°08'5 9.6
2017-Apr-23 07:30N 34°37' E 135°13'4 8.0
2017-Apr-23 07:00N 34°41' E 135°11'0 0.0
2017-Apr-23 06:19N 34°41' E 135°11'0 0.0
2017-Apr-23 05:55N 34°41' E 135°11'0 0.0
2017-Apr-23 05:19N 34°41' E 135°11'0 0.0
2017-Apr-23 04:55N 34°41' E 135°11'3 7.1
2017-Apr-23 04:31N 34°38' E 135°10'2 3.6
2017-Apr-23 04:00N 34°37' E 135°08'4 6.9
2017-Apr-23 03:30N 34°38' E 135°13'3 7.2
2017-Apr-23 03:00N 34°41' E 135°11'0 0.0
2017-Apr-23 02:28N 34°41' E 135°11'0 0.0
2017-Apr-23 01:52N 34°41' E 135°11'0 0.0
2017-Apr-23 01:28N 34°41' E 135°11'0 0.0
2017-Apr-23 00:58N 34°41' E 135°11'0 0.0
2017-Apr-23 00:28N 34°41' E 135°11'0 0.0
2017-Apr-22 23:58N 34°41' E 135°11'0 0.0
2017-Apr-22 23:28N 34°41' E 135°11'0 0.0
2017-Apr-22 22:58N 34°41' E 135°11'0 0.0
2017-Apr-22 22:22N 34°41' E 135°11'0 0.0
2017-Apr-22 21:46N 34°41' E 135°11'0 0.0
2017-Apr-22 21:22N 34°41' E 135°11'0 0.0
2017-Apr-22 20:52N 34°41' E 135°11'0 0.0
2017-Apr-22 20:28N 34°41' E 135°11'0 0.0
2017-Apr-22 19:58N 34°41' E 135°11'0 0.0
2017-Apr-22 19:28N 34°41' E 135°11'0 0.0
2017-Apr-22 18:52N 34°41' E 135°11'0 0.0
2017-Apr-22 18:28N 34°41' E 135°11'0 0.0
2017-Apr-22 17:58N 34°41' E 135°11'0 0.0
2017-Apr-22 17:28N 34°41' E 135°11'0 0.0
2017-Apr-22 16:58N 34°41' E 135°11'0 0.0
2017-Apr-22 16:28N 34°41' E 135°11'0 0.0
2017-Apr-22 15:58N 34°41' E 135°11'0 0.0
2017-Apr-22 15:28N 34°41' E 135°11'0 0.0
2017-Apr-22 14:58N 34°41' E 135°11'0 0.0
2017-Apr-22 14:28N 34°41' E 135°11'0 0.0
2017-Apr-22 13:28N 34°41' E 135°11'0 0.0
2017-Apr-22 12:58N 34°41' E 135°11'0 0.0
2017-Apr-22 12:28N 34°41' E 135°11'1 3.1
2017-Apr-22 12:00N 34°39' E 135°11'612.3
2017-Apr-22 11:30N 34°35' E 135°06'612.5
2017-Apr-22 11:00N 34°37' E 134°59'816.0
2017-Apr-22 10:30N 34°37' E 135°09'4 8.2
2017-Apr-22 10:00N 34°41' E 135°11'0 0.0
2017-Apr-22 09:28N 34°41' E 135°11'1 2.6
2017-Apr-22 09:01N 34°40' E 135°11'612.5
2017-Apr-22 08:30N 34°35' E 135°06'610.9
2017-Apr-22 07:59N 34°37' E 134°60'816.5
2017-Apr-22 07:30N 34°38' E 135°09'4 7.2
2017-Apr-22 07:00N 34°41' E 135°11'0 0.0
2017-Apr-22 06:24N 34°41' E 135°11'0 0.0
2017-Apr-22 06:00N 34°41' E 135°11'0 0.0
2017-Apr-22 05:30N 34°41' E 135°11'0 0.0
2017-Apr-22 05:00N 34°41' E 135°11'3 5.6
2017-Apr-22 04:30N 34°38' E 135°10'1 2.6
2017-Apr-22 04:00N 34°37' E 135°10'3 6.2
2017-Apr-22 03:30N 34°37' E 135°13'4 7.6
2017-Apr-22 03:00N 34°41' E 135°11'0 0.0
2017-Apr-22 02:26N 34°41' E 135°11'0 0.0
2017-Apr-22 01:56N 34°41' E 135°11'0 0.0
2017-Apr-22 01:08N 34°41' E 135°11'0 0.0
2017-Apr-22 00:56N 34°41' E 135°11'0 0.0
2017-Apr-22 00:26N 34°41' E 135°11'0 0.0
2017-Apr-21 23:56N 34°41' E 135°11'0 0.0
2017-Apr-21 23:26N 34°41' E 135°11'0 0.0
2017-Apr-21 22:44N 34°41' E 135°11'0 0.0
2017-Apr-21 22:26N 34°41' E 135°11'0 0.0
2017-Apr-21 21:56N 34°41' E 135°11'0 0.0
2017-Apr-21 21:26N 34°41' E 135°11'0 0.0
2017-Apr-21 20:56N 34°41' E 135°11'0 0.0
2017-Apr-21 20:20N 34°41' E 135°11'0 0.0
2017-Apr-21 19:50N 34°41' E 135°11'0 0.0
2017-Apr-21 19:26N 34°41' E 135°11'0 0.0
2017-Apr-21 18:56N 34°41' E 135°11'0 0.0
2017-Apr-21 18:26N 34°41' E 135°11'0 0.0
2017-Apr-21 17:56N 34°41' E 135°11'0 0.0
2017-Apr-21 17:26N 34°41' E 135°11'0 0.0
2017-Apr-21 16:56N 34°41' E 135°11'0 0.0
2017-Apr-21 16:26N 34°41' E 135°11'0 0.0
2017-Apr-21 15:50N 34°41' E 135°11'0 0.0
2017-Apr-21 15:26N 34°41' E 135°11'0 0.0
2017-Apr-21 14:56N 34°41' E 135°11'0 0.0
2017-Apr-21 14:20N 34°41' E 135°11'0 0.0
2017-Apr-21 13:20N 34°41' E 135°11'0 0.0
2017-Apr-21 12:56N 34°41' E 135°11'0 0.0
2017-Apr-21 12:20N 34°41' E 135°11'1 3.4
2017-Apr-21 12:00N 34°40' E 135°11'612.3
2017-Apr-21 11:30N 34°35' E 135°06'612.1
2017-Apr-21 11:00N 34°38' E 134°60'713.8
2017-Apr-21 10:30N 34°37' E 135°08'5 9.6
2017-Apr-21 10:00N 34°41' E 135°11'0 0.0
2017-Apr-21 09:29N 34°41' E 135°11'1 3.0
2017-Apr-21 09:00N 34°39' E 135°11'3 7.1
2017-Apr-21 08:30N 34°37' E 135°08'4 8.2
2017-Apr-21 07:58N 34°41' E 135°11'0 0.0
2017-Apr-21 07:15N 34°41' E 135°11'0 0.0
2017-Apr-21 06:45N 34°41' E 135°11'0 0.0
2017-Apr-21 06:27N 34°41' E 135°11'0 0.0
2017-Apr-21 05:57N 34°41' E 135°11'0 0.0
2017-Apr-21 05:27N 34°41' E 135°11'0 0.0
2017-Apr-21 04:57N 34°41' E 135°11'3 6.1
2017-Apr-21 04:30N 34°38' E 135°11'3 6.3
2017-Apr-21 04:00N 34°37' E 135°07'4 8.8
2017-Apr-21 03:30N 34°38' E 135°13'4 7.0
2017-Apr-21 03:00N 34°41' E 135°11'0 0.0
2017-Apr-21 02:24N 34°41' E 135°11'0 0.0
2017-Apr-21 02:00N 34°41' E 135°11'0 0.0
2017-Apr-21 01:30N 34°41' E 135°11'0 0.0
2017-Apr-21 01:00N 34°41' E 135°11'0 0.0
2017-Apr-21 00:30N 34°41' E 135°11'0 0.0
2017-Apr-20 23:48N 34°41' E 135°11'0 0.0
2017-Apr-20 23:24N 34°41' E 135°11'0 0.0
2017-Apr-20 23:00N 34°41' E 135°11'0 0.0
2017-Apr-20 22:30N 34°41' E 135°11'0 0.0
2017-Apr-20 22:00N 34°41' E 135°11'0 0.0
2017-Apr-20 21:30N 34°41' E 135°11'0 0.0
2017-Apr-20 21:00N 34°41' E 135°11'0 0.0
2017-Apr-20 20:30N 34°41' E 135°11'0 0.0
2017-Apr-20 20:00N 34°41' E 135°11'0 0.0
2017-Apr-20 19:12N 34°41' E 135°11'0 0.0
2017-Apr-20 18:54N 34°41' E 135°11'0 0.0
2017-Apr-20 18:30N 34°41' E 135°11'0 0.0
2017-Apr-20 18:00N 34°41' E 135°11'0 0.0
2017-Apr-20 17:24N 34°41' E 135°11'0 0.0
2017-Apr-20 17:00N 34°41' E 135°11'0 0.0
2017-Apr-20 16:30N 34°41' E 135°11'0 0.0
2017-Apr-20 16:00N 34°41' E 135°11'0 0.0
2017-Apr-20 15:30N 34°41' E 135°11'0 0.0
2017-Apr-20 15:00N 34°41' E 135°11'0 0.0
2017-Apr-20 14:00N 34°41' E 135°11'0 0.0
2017-Apr-20 13:30N 34°41' E 135°11'0 0.0
2017-Apr-20 13:00N 34°41' E 135°11'0 0.0
2017-Apr-20 12:30N 34°41' E 135°11'1 3.0
2017-Apr-20 12:01N 34°39' E 135°11'713.4
2017-Apr-20 11:30N 34°35' E 135°05'4 7.4
2017-Apr-20 10:56N 34°37' E 135°01'613.1
2017-Apr-20 10:30N 34°37' E 135°08'5 9.5
2017-Apr-20 10:00N 34°41' E 135°11'0 0.0
2017-Apr-20 09:26N 34°41' E 135°11'1 2.6
2017-Apr-20 09:00N 34°40' E 135°11'4 7.3
2017-Apr-20 08:30N 34°38' E 135°08'4 8.8
2017-Apr-20 08:00N 34°41' E 135°11'0 0.0
2017-Apr-20 07:29N 34°41' E 135°11'0 0.0
2017-Apr-20 06:53N 34°41' E 135°11'0 0.0
2017-Apr-20 06:23N 34°41' E 135°11'0 0.0
2017-Apr-20 05:59N 34°41' E 135°11'0 0.0
2017-Apr-20 05:29N 34°41' E 135°11'0 0.0
2017-Apr-20 04:56N 34°41' E 135°11'3 6.6
2017-Apr-20 04:30N 34°38' E 135°10'2 3.9
2017-Apr-20 04:00N 34°37' E 135°09'3 6.4
2017-Apr-20 03:30N 34°37' E 135°12'4 7.5
2017-Apr-20 03:00N 34°41' E 135°11'0 0.0
2017-Apr-20 02:31N 34°41' E 135°11'0 0.0
2017-Apr-20 01:55N 34°41' E 135°11'0 0.0
2017-Apr-20 01:31N 34°41' E 135°11'0 0.0
2017-Apr-20 00:49N 34°41' E 135°11'0 0.0
2017-Apr-20 00:07N 34°41' E 135°11'0 0.1
2017-Apr-20 00:01N 34°41' E 135°11'0 0.0
2017-Apr-19 23:31N 34°41' E 135°11'0 0.0
2017-Apr-19 22:55N 34°41' E 135°11'0 0.0
2017-Apr-19 22:25N 34°41' E 135°11'0 0.0
2017-Apr-19 21:55N 34°41' E 135°11'0 0.0
2017-Apr-19 21:25N 34°41' E 135°11'0 0.0
2017-Apr-19 21:01N 34°41' E 135°11'0 0.0
2017-Apr-19 20:31N 34°41' E 135°11'0 0.0
2017-Apr-19 19:49N 34°41' E 135°11'0 0.0
2017-Apr-19 19:31N 34°41' E 135°11'0 0.0
2017-Apr-19 18:55N 34°41' E 135°11'0 0.0
2017-Apr-19 18:01N 34°41' E 135°11'0 0.0
2017-Apr-19 17:31N 34°41' E 135°11'0 0.0
2017-Apr-19 17:01N 34°41' E 135°11'0 0.0
2017-Apr-19 16:31N 34°41' E 135°11'0 0.0
2017-Apr-19 16:00N 34°41' E 135°11'0 0.0
2017-Apr-19 15:31N 34°41' E 135°11'0 0.0
2017-Apr-19 14:54N 34°41' E 135°11'0 0.0
2017-Apr-19 14:31N 34°41' E 135°11'0 0.0
2017-Apr-19 13:24N 34°41' E 135°11'0 0.0
2017-Apr-19 12:54N 34°41' E 135°11'0 0.0
2017-Apr-19 12:24N 34°41' E 135°11'1 2.8
2017-Apr-19 12:00N 34°40' E 135°11'612.5
2017-Apr-19 11:30N 34°35' E 135°06'510.8
2017-Apr-19 11:00N 34°37' E 135°00'612.8
2017-Apr-19 10:30N 34°37' E 135°08'5 9.7
2017-Apr-19 10:01N 34°41' E 135°11'0 0.0
2017-Apr-19 09:25N 34°41' E 135°11'1 3.3
2017-Apr-19 09:00N 34°39' E 135°11'4 7.2
2017-Apr-19 08:30N 34°37' E 135°08'4 8.8
2017-Apr-19 08:00N 34°41' E 135°11'0 0.0
2017-Apr-19 07:29N 34°41' E 135°11'0 0.0
2017-Apr-19 06:29N 34°41' E 135°11'0 0.0
2017-Apr-19 05:11N 34°41' E 135°11'0 0.0
2017-Apr-19 04:56N 34°41' E 135°11'3 7.2
2017-Apr-19 04:30N 34°38' E 135°11'2 4.2
2017-Apr-19 04:00N 34°37' E 135°08'3 6.6
2017-Apr-19 03:29N 34°37' E 135°12'4 7.6
2017-Apr-19 03:00N 34°41' E 135°11'0 0.0
2017-Apr-19 02:30N 34°41' E 135°11'0 0.0
2017-Apr-19 02:00N 34°41' E 135°11'0 0.0
2017-Apr-19 01:30N 34°41' E 135°11'0 0.0
2017-Apr-19 01:00N 34°41' E 135°11'0 0.0
2017-Apr-19 00:30N 34°41' E 135°11'0 0.0
2017-Apr-19 00:00N 34°41' E 135°11'0 0.0
2017-Apr-18 23:24N 34°41' E 135°11'0 0.0
2017-Apr-18 23:00N 34°41' E 135°11'0 0.0
2017-Apr-18 22:06N 34°41' E 135°11'0 0.0
2017-Apr-18 22:00N 34°41' E 135°11'0 0.0
2017-Apr-18 21:18N 34°41' E 135°11'0 0.0
2017-Apr-18 21:00N 34°41' E 135°11'0 0.0
2017-Apr-18 20:24N 34°41' E 135°11'0 0.0
2017-Apr-18 20:00N 34°41' E 135°11'0 0.0
2017-Apr-18 19:30N 34°41' E 135°11'0 0.0
2017-Apr-18 18:48N 34°41' E 135°11'0 0.0
2017-Apr-18 18:30N 34°41' E 135°11'0 0.0
2017-Apr-18 18:00N 34°41' E 135°11'0 0.0
2017-Apr-18 17:30N 34°41' E 135°11'0 0.0
2017-Apr-18 17:00N 34°41' E 135°11'0 0.0
2017-Apr-18 16:24N 34°41' E 135°11'0 0.0
2017-Apr-18 16:00N 34°41' E 135°11'0 0.0
2017-Apr-18 15:18N 34°41' E 135°11'0 0.0
2017-Apr-18 15:00N 34°41' E 135°11'0 0.0
2017-Apr-18 14:30N 34°41' E 135°11'0 0.0
2017-Apr-18 13:30N 34°41' E 135°11'0 0.0
2017-Apr-18 12:54N 34°41' E 135°11'0 0.0
2017-Apr-18 12:30N 34°41' E 135°11'1 2.8
2017-Apr-18 12:00N 34°39' E 135°11'612.4
2017-Apr-18 11:30N 34°35' E 135°06'510.7
2017-Apr-18 11:00N 34°38' E 135°00'612.8
2017-Apr-18 10:30N 34°37' E 135°08'5 9.9
2017-Apr-18 10:00N 34°41' E 135°11'  
Track history (hours):
 
Tides and Currents Weather Stations Pressure Air Temp Water Temp Dewpoint Dewpoint Depression Visibility Wind Speed Wind Dir Waves Ship Positions

Luminous Kobe-2

Last reported at 2017-Apr-28 10:00 UTC. Time now 2017-Apr-28 10:24 UTC.
Position N 34°41' E 135°11'.

Length 105 m; draft 4.5 m.

Type: Passenger vessel. MMSI: 431000469.

Date/timePositionNaut miles runAvg speedWind from/ knotsBaromVisibWave heightAir tempDewpointWater temp
2017-Apr-28 10:00N 34°41' E 135°11'0 0.0
2017-Apr-28 09:30N 34°41' E 135°11'1 2.7
2017-Apr-28 09:00N 34°40' E 135°11'4 7.1
2017-Apr-28 08:30N 34°38' E 135°08'4 8.5
2017-Apr-28 08:00N 34°41' E 135°11'0 0.0
2017-Apr-28 07:25N 34°41' E 135°11'0 0.0
2017-Apr-28 06:49N 34°41' E 135°11'0 0.0
2017-Apr-28 06:25N 34°41' E 135°11'0 0.0
2017-Apr-28 05:49N 34°41' E 135°11'0 0.0
2017-Apr-28 05:19N 34°41' E 135°11'0 0.0
2017-Apr-28 04:56N 34°41' E 135°11'3 6.4
2017-Apr-28 04:31N 34°38' E 135°11'3 6.1
2017-Apr-28 04:00N 34°37' E 135°08'5 9.0
2017-Apr-28 03:30N 34°37' E 135°13'4 8.2
2017-Apr-28 03:00N 34°41' E 135°11'0 0.0
2017-Apr-28 02:30N 34°41' E 135°11'0 0.0
2017-Apr-28 01:48N 34°41' E 135°11'0 0.0
2017-Apr-28 01:30N 34°41' E 135°11'0 0.0
2017-Apr-28 00:48N 34°41' E 135°11'0 0.0
2017-Apr-28 00:30N 34°41' E 135°11'0 0.0
2017-Apr-28 00:00N 34°41' E 135°11'0 0.0
2017-Apr-27 23:30N 34°41' E 135°11'0 0.0
2017-Apr-27 23:00N 34°41' E 135°11'0 0.0
2017-Apr-27 22:24N 34°41' E 135°11'0 0.0
2017-Apr-27 22:00N 34°41' E 135°11'0 0.0
2017-Apr-27 21:30N 34°41' E 135°11'0 0.0
2017-Apr-27 20:54N 34°41' E 135°11'0 0.0
2017-Apr-27 20:30N 34°41' E 135°11'0 0.0
2017-Apr-27 19:54N 34°41' E 135°11'0 0.0
2017-Apr-27 19:24N 34°41' E 135°11'0 0.0
2017-Apr-27 19:00N 34°41' E 135°11'0 0.0
2017-Apr-27 18:30N 34°41' E 135°11'0 0.0
2017-Apr-27 18:00N 34°41' E 135°11'0 0.0
2017-Apr-27 17:30N 34°41' E 135°11'0 0.0
2017-Apr-27 17:00N 34°41' E 135°11'0 0.0
2017-Apr-27 16:30N 34°41' E 135°11'0 0.0
2017-Apr-27 16:00N 34°41' E 135°11'0 0.0
2017-Apr-27 15:30N 34°41' E 135°11'0 0.0
2017-Apr-27 15:00N 34°41' E 135°11'0 0.0
2017-Apr-27 14:00N 34°41' E 135°11'0 0.0
2017-Apr-27 13:30N 34°41' E 135°11'0 0.0
2017-Apr-27 13:00N 34°41' E 135°11'0 0.0
2017-Apr-27 12:30N 34°41' E 135°11'1 2.6
2017-Apr-27 12:00N 34°40' E 135°11'510.6
2017-Apr-27 11:30N 34°36' E 135°07'611.0
2017-Apr-27 11:00N 34°37' E 135°00'510.8
2017-Apr-27 10:31N 34°37' E 135°07'510.9
2017-Apr-27 10:00N 34°41' E 135°11'0 0.0
2017-Apr-27 09:16N 34°41' E 135°11'2 6.5
2017-Apr-27 09:00N 34°39' E 135°11'3 6.7
2017-Apr-27 08:30N 34°38' E 135°08'4 8.8
2017-Apr-27 08:00N 34°41' E 135°11'0 0.0
2017-Apr-27 07:26N 34°41' E 135°11'0 0.0
2017-Apr-27 06:44N 34°41' E 135°11'0 0.0
2017-Apr-27 06:20N 34°41' E 135°11'0 0.0
2017-Apr-27 05:56N 34°41' E 135°11'0 0.0
2017-Apr-27 05:14N 34°41' E 135°11'0 0.0
2017-Apr-27 04:55N 34°41' E 135°11'3 6.5
2017-Apr-27 04:30N 34°38' E 135°11'4 7.3
2017-Apr-27 04:00N 34°37' E 135°07'510.5
2017-Apr-27 03:30N 34°37' E 135°13'4 8.2
2017-Apr-27 03:00N 34°41' E 135°11'0 0.0
2017-Apr-27 02:27N 34°41' E 135°11'0 0.0
2017-Apr-27 01:57N 34°41' E 135°11'0 0.0
2017-Apr-27 01:27N 34°41' E 135°11'0 0.0
2017-Apr-27 00:57N 34°41' E 135°11'0 0.0
2017-Apr-27 00:27N 34°41' E 135°11'0 0.0
2017-Apr-26 23:51N 34°41' E 135°11'0 0.0
2017-Apr-26 23:27N 34°41' E 135°11'0 0.0
2017-Apr-26 22:57N 34°41' E 135°11'0 0.0
2017-Apr-26 22:21N 34°41' E 135°11'0 0.0
2017-Apr-26 21:51N 34°41' E 135°11'0 0.0
2017-Apr-26 21:27N 34°41' E 135°11'0 0.0
2017-Apr-26 20:57N 34°41' E 135°11'0 0.0
2017-Apr-26 20:27N 34°41' E 135°11'0 0.0
2017-Apr-26 19:57N 34°41' E 135°11'0 0.0
2017-Apr-26 19:15N 34°41' E 135°11'0 0.0
2017-Apr-26 18:57N 34°41' E 135°11'0 0.0
2017-Apr-26 18:27N 34°41' E 135°11'0 0.0
2017-Apr-26 17:57N 34°41' E 135°11'0 0.0
2017-Apr-26 17:27N 34°41' E 135°11'0 0.0
2017-Apr-26 16:57N 34°41' E 135°11'0 0.0
2017-Apr-26 16:27N 34°41' E 135°11'0 0.0
2017-Apr-26 15:57N 34°41' E 135°11'0 0.0
2017-Apr-26 15:27N 34°41' E 135°11'0 0.0
2017-Apr-26 14:09N 34°41' E 135°11'0 0.0
2017-Apr-26 13:27N 34°41' E 135°11'0 0.0
2017-Apr-26 12:57N 34°41' E 135°11'0 0.0
2017-Apr-26 12:21N 34°41' E 135°11'1 3.7
2017-Apr-26 12:00N 34°40' E 135°11'510.3
2017-Apr-26 11:30N 34°36' E 135°07'611.3
2017-Apr-26 10:59N 34°37' E 134°60'611.6
2017-Apr-26 10:30N 34°37' E 135°07'510.8
2017-Apr-26 10:00N 34°41' E 135°11'0 0.0
2017-Apr-26 09:17N 34°41' E 135°11'2 5.6
2017-Apr-26 09:00N 34°39' E 135°11'3 5.9
2017-Apr-26 08:29N 34°38' E 135°08'4 8.5
2017-Apr-26 08:00N 34°41' E 135°11'0 0.0
2017-Apr-26 07:27N 34°41' E 135°11'0 0.0
2017-Apr-26 06:57N 34°41' E 135°11'0 0.0
2017-Apr-26 06:27N 34°41' E 135°11'0 0.0
2017-Apr-26 05:57N 34°41' E 135°11'0 0.0
2017-Apr-26 05:15N 34°41' E 135°11'0 0.0
2017-Apr-26 04:57N 34°41' E 135°11'3 6.3
2017-Apr-26 04:30N 34°38' E 135°11'2 3.2
2017-Apr-26 03:59N 34°37' E 135°10'3 5.4
2017-Apr-26 03:30N 34°37' E 135°13'4 7.7
2017-Apr-26 03:00N 34°41' E 135°11'0 0.0
2017-Apr-26 02:29N 34°41' E 135°11'0 0.0
2017-Apr-26 01:59N 34°41' E 135°11'0 0.0
2017-Apr-26 01:29N 34°41' E 135°11'0 0.0
2017-Apr-26 00:59N 34°41' E 135°11'0 0.0
2017-Apr-26 00:29N 34°41' E 135°11'0 0.0
2017-Apr-25 23:53N 34°41' E 135°11'0 0.0
2017-Apr-25 23:23N 34°41' E 135°11'0 0.0
2017-Apr-25 22:53N 34°41' E 135°11'0 0.0
2017-Apr-25 22:29N 34°41' E 135°11'0 0.0
2017-Apr-25 21:59N 34°41' E 135°11'0 0.0
2017-Apr-25 21:29N 34°41' E 135°11'0 0.0
2017-Apr-25 20:35N 34°41' E 135°11'0 0.0
2017-Apr-25 20:29N 34°41' E 135°11'0 0.0
2017-Apr-25 19:59N 34°41' E 135°11'0 0.0
2017-Apr-25 19:29N 34°41' E 135°11'0 0.0
2017-Apr-25 18:59N 34°41' E 135°11'0 0.0
2017-Apr-25 18:29N 34°41' E 135°11'0 0.0
2017-Apr-25 17:53N 34°41' E 135°11'0 0.0
2017-Apr-25 17:29N 34°41' E 135°11'0 0.0
2017-Apr-25 16:59N 34°41' E 135°11'0 0.0
2017-Apr-25 16:29N 34°41' E 135°11'0 0.0
2017-Apr-25 15:41N 34°41' E 135°11'0 0.0
2017-Apr-25 15:29N 34°41' E 135°11'0 0.0
2017-Apr-25 14:53N 34°41' E 135°11'0 0.0
2017-Apr-25 13:59N 34°41' E 135°11'0 0.0
2017-Apr-25 13:29N 34°41' E 135°11'0 0.0
2017-Apr-25 12:59N 34°41' E 135°11'0 0.0
2017-Apr-25 12:29N 34°41' E 135°11'1 2.6
2017-Apr-25 12:00N 34°40' E 135°11'511.0
2017-Apr-25 11:30N 34°35' E 135°07'612.8
2017-Apr-25 11:00N 34°37' E 134°60'612.1
2017-Apr-25 10:30N 34°37' E 135°07'510.3
2017-Apr-25 10:00N 34°41' E 135°11'0 0.0
2017-Apr-25 09:28N 34°41' E 135°11'1 2.7
2017-Apr-25 09:00N 34°40' E 135°11'4 7.3
2017-Apr-25 08:30N 34°37' E 135°08'4 8.9
2017-Apr-25 08:00N 34°41' E 135°11'0 0.0
2017-Apr-25 07:19N 34°41' E 135°11'0 0.0
2017-Apr-25 06:55N 34°41' E 135°11'0 0.0
2017-Apr-25 06:19N 34°41' E 135°11'0 0.0
2017-Apr-25 05:55N 34°41' E 135°11'0 0.0
2017-Apr-25 05:19N 34°41' E 135°11'0 0.0
2017-Apr-25 04:55N 34°41' E 135°11'3 6.3
2017-Apr-25 04:30N 34°38' E 135°11'3 5.5
2017-Apr-25 04:00N 34°37' E 135°08'4 7.6
2017-Apr-25 03:30N 34°37' E 135°12'3 7.1
2017-Apr-25 03:00N 34°41' E 135°11'0 0.0
2017-Apr-25 02:30N 34°41' E 135°11'2 3.3
2017-Apr-25 02:00N 34°39' E 135°11'1 2.2
2017-Apr-25 01:30N 34°40' E 135°12'1 1.0
2017-Apr-25 00:55N 34°41' E 135°11'0 0.0
2017-Apr-25 00:25N 34°41' E 135°11'0 0.0
2017-Apr-24 23:55N 34°41' E 135°11'0 0.0
2017-Apr-24 23:25N 34°41' E 135°11'0 0.0
2017-Apr-24 22:55N 34°41' E 135°11'0 0.0
2017-Apr-24 22:25N 34°41' E 135°11'0 0.0
2017-Apr-24 21:49N 34°41' E 135°11'0 0.0
2017-Apr-24 21:25N 34°41' E 135°11'0 0.0
2017-Apr-24 20:55N 34°41' E 135°11'0 0.0
2017-Apr-24 20:25N 34°41' E 135°11'0 0.0
2017-Apr-24 19:49N 34°41' E 135°11'0 0.0
2017-Apr-24 19:25N 34°41' E 135°11'0 0.0
2017-Apr-24 18:55N 34°41' E 135°11'0 0.0
2017-Apr-24 18:25N 34°41' E 135°11'0 0.0
2017-Apr-24 17:55N 34°41' E 135°11'0 0.0
2017-Apr-24 17:25N 34°41' E 135°11'0 0.0
2017-Apr-24 16:55N 34°41' E 135°11'0 0.0
2017-Apr-24 16:13N 34°41' E 135°11'0 0.0
2017-Apr-24 15:55N 34°41' E 135°11'0 0.0
2017-Apr-24 15:25N 34°41' E 135°11'0 0.0
2017-Apr-24 14:55N 34°41' E 135°11'0 0.0
2017-Apr-24 14:25N 34°41' E 135°11'0 0.0
2017-Apr-24 13:25N 34°41' E 135°11'0 0.0
2017-Apr-24 12:55N 34°41' E 135°11'0 0.0
2017-Apr-24 12:25N 34°41' E 135°11'2 3.8
2017-Apr-24 12:00N 34°39' E 135°11'510.5
2017-Apr-24 11:31N 34°36' E 135°07'612.3
2017-Apr-24 11:00N 34°37' E 134°59'713.2
2017-Apr-24 10:30N 34°37' E 135°07'510.0
2017-Apr-24 10:00N 34°41' E 135°11'0 0.0
2017-Apr-24 09:30N 34°41' E 135°11'1 2.8
2017-Apr-24 09:00N 34°39' E 135°11'3 6.2
2017-Apr-24 08:29N 34°38' E 135°08'4 8.6
2017-Apr-24 08:01N 34°41' E 135°11'0 0.0
2017-Apr-24 07:25N 34°41' E 135°11'0 0.0
2017-Apr-24 06:55N 34°41' E 135°11'0 0.0
2017-Apr-24 06:25N 34°41' E 135°11'0 0.0
2017-Apr-24 05:55N 34°41' E 135°11'0 0.0
2017-Apr-24 05:07N 34°41' E 135°11'0 0.0
2017-Apr-24 04:56N 34°41' E 135°11'3 6.7
2017-Apr-24 04:30N 34°38' E 135°11'2 3.8
2017-Apr-24 04:00N 34°37' E 135°09'4 7.1
2017-Apr-24 03:30N 34°37' E 135°14'4 8.2
2017-Apr-24 03:00N 34°41' E 135°11'0 0.0
2017-Apr-24 02:15N 34°41' E 135°11'0 0.0
2017-Apr-24 01:57N 34°41' E 135°11'0 0.0
2017-Apr-24 01:27N 34°41' E 135°11'0 0.0
2017-Apr-24 00:57N 34°41' E 135°11'0 0.0
2017-Apr-24 00:27N 34°41' E 135°11'0 0.0
2017-Apr-23 23:57N 34°41' E 135°11'0 0.0
2017-Apr-23 23:21N 34°41' E 135°11'0 0.0
2017-Apr-23 22:57N 34°41' E 135°11'0 0.0
2017-Apr-23 22:21N 34°41' E 135°11'0 0.0
2017-Apr-23 21:51N 34°41' E 135°11'0 0.0
2017-Apr-23 21:27N 34°41' E 135°11'0 0.0
2017-Apr-23 20:57N 34°41' E 135°11'0 0.0
2017-Apr-23 20:03N 34°41' E 135°11'0 0.0
2017-Apr-23 19:57N 34°41' E 135°11'0 0.0
2017-Apr-23 19:27N 34°41' E 135°11'0 0.0
2017-Apr-23 18:51N 34°41' E 135°11'0 0.0
2017-Apr-23 18:27N 34°41' E 135°11'0 0.0
2017-Apr-23 17:57N 34°41' E 135°11'0 0.0
2017-Apr-23 17:27N 34°41' E 135°11'0 0.0
2017-Apr-23 16:57N 34°41' E 135°11'0 0.0
2017-Apr-23 16:27N 34°41' E 135°11'0 0.0
2017-Apr-23 15:51N 34°41' E 135°11'0 0.0
2017-Apr-23 15:27N 34°41' E 135°11'0 0.0
2017-Apr-23 14:51N 34°41' E 135°11'0 0.0
2017-Apr-23 13:57N 34°41' E 135°11'0 0.0
2017-Apr-23 13:27N 34°41' E 135°11'0 0.0
2017-Apr-23 12:57N 34°41' E 135°11'0 0.0
2017-Apr-23 12:27N 34°41' E 135°11'1 2.9
2017-Apr-23 12:00N 34°40' E 135°11'714.2
2017-Apr-23 11:30N 34°35' E 135°05'5 9.3
2017-Apr-23 11:00N 34°37' E 135°00'815.4
2017-Apr-23 10:30N 34°38' E 135°10'3 6.9
2017-Apr-23 10:00N 34°41' E 135°11'0 0.0
2017-Apr-23 09:21N 34°41' E 135°11'0 0.0
2017-Apr-23 08:57N 34°41' E 135°11'3 6.0
2017-Apr-23 08:30N 34°38' E 135°11'3 5.6
2017-Apr-23 08:00N 34°37' E 135°08'5 9.6
2017-Apr-23 07:30N 34°37' E 135°13'4 8.0
2017-Apr-23 07:00N 34°41' E 135°11'0 0.0
2017-Apr-23 06:19N 34°41' E 135°11'0 0.0
2017-Apr-23 05:55N 34°41' E 135°11'0 0.0
2017-Apr-23 05:19N 34°41' E 135°11'0 0.0
2017-Apr-23 04:55N 34°41' E 135°11'3 7.1
2017-Apr-23 04:31N 34°38' E 135°10'2 3.6
2017-Apr-23 04:00N 34°37' E 135°08'4 6.9
2017-Apr-23 03:30N 34°38' E 135°13'3 7.2
2017-Apr-23 03:00N 34°41' E 135°11'0 0.0
2017-Apr-23 02:28N 34°41' E 135°11'0 0.0
2017-Apr-23 01:52N 34°41' E 135°11'0 0.0
2017-Apr-23 01:28N 34°41' E 135°11'0 0.0
2017-Apr-23 00:58N 34°41' E 135°11'0 0.0
2017-Apr-23 00:28N 34°41' E 135°11'0 0.0
2017-Apr-22 23:58N 34°41' E 135°11'0 0.0
2017-Apr-22 23:28N 34°41' E 135°11'0 0.0
2017-Apr-22 22:58N 34°41' E 135°11'0 0.0
2017-Apr-22 22:22N 34°41' E 135°11'0 0.0
2017-Apr-22 21:46N 34°41' E 135°11'0 0.0
2017-Apr-22 21:22N 34°41' E 135°11'0 0.0
2017-Apr-22 20:52N 34°41' E 135°11'0 0.0
2017-Apr-22 20:28N 34°41' E 135°11'0 0.0
2017-Apr-22 19:58N 34°41' E 135°11'0 0.0
2017-Apr-22 19:28N 34°41' E 135°11'0 0.0
2017-Apr-22 18:52N 34°41' E 135°11'0 0.0
2017-Apr-22 18:28N 34°41' E 135°11'0 0.0
2017-Apr-22 17:58N 34°41' E 135°11'0 0.0
2017-Apr-22 17:28N 34°41' E 135°11'0 0.0
2017-Apr-22 16:58N 34°41' E 135°11'0 0.0
2017-Apr-22 16:28N 34°41' E 135°11'0 0.0
2017-Apr-22 15:58N 34°41' E 135°11'0 0.0
2017-Apr-22 15:28N 34°41' E 135°11'0 0.0
2017-Apr-22 14:58N 34°41' E 135°11'0 0.0
2017-Apr-22 14:28N 34°41' E 135°11'0 0.0
2017-Apr-22 13:28N 34°41' E 135°11'0 0.0
2017-Apr-22 12:58N 34°41' E 135°11'0 0.0
2017-Apr-22 12:28N 34°41' E 135°11'1 3.1
2017-Apr-22 12:00N 34°39' E 135°11'612.3
2017-Apr-22 11:30N 34°35' E 135°06'612.5
2017-Apr-22 11:00N 34°37' E 134°59'816.0
2017-Apr-22 10:30N 34°37' E 135°09'4 8.2
2017-Apr-22 10:00N 34°41' E 135°11'0 0.0
2017-Apr-22 09:28N 34°41' E 135°11'1 2.6
2017-Apr-22 09:01N 34°40' E 135°11'612.5
2017-Apr-22 08:30N 34°35' E 135°06'610.9
2017-Apr-22 07:59N 34°37' E 134°60'816.5
2017-Apr-22 07:30N 34°38' E 135°09'4 7.2
2017-Apr-22 07:00N 34°41' E 135°11'0 0.0
2017-Apr-22 06:24N 34°41' E 135°11'0 0.0
2017-Apr-22 06:00N 34°41' E 135°11'0 0.0
2017-Apr-22 05:30N 34°41' E 135°11'0 0.0
2017-Apr-22 05:00N 34°41' E 135°11'3 5.6
2017-Apr-22 04:30N 34°38' E 135°10'1 2.6
2017-Apr-22 04:00N 34°37' E 135°10'3 6.2
2017-Apr-22 03:30N 34°37' E 135°13'4 7.6
2017-Apr-22 03:00N 34°41' E 135°11'0 0.0
2017-Apr-22 02:26N 34°41' E 135°11'0 0.0
2017-Apr-22 01:56N 34°41' E 135°11'0 0.0
2017-Apr-22 01:08N 34°41' E 135°11'0 0.0
2017-Apr-22 00:56N 34°41' E 135°11'0 0.0
2017-Apr-22 00:26N 34°41' E 135°11'0 0.0
2017-Apr-21 23:56N 34°41' E 135°11'0 0.0
2017-Apr-21 23:26N 34°41' E 135°11'0 0.0
2017-Apr-21 22:44N 34°41' E 135°11'0 0.0
2017-Apr-21 22:26N 34°41' E 135°11'0 0.0
2017-Apr-21 21:56N 34°41' E 135°11'0 0.0
2017-Apr-21 21:26N 34°41' E 135°11'0 0.0
2017-Apr-21 20:56N 34°41' E 135°11'0 0.0
2017-Apr-21 20:20N 34°41' E 135°11'0 0.0
2017-Apr-21 19:50N 34°41' E 135°11'0 0.0
2017-Apr-21 19:26N 34°41' E 135°11'0 0.0
2017-Apr-21 18:56N 34°41' E 135°11'0 0.0
2017-Apr-21 18:26N 34°41' E 135°11'0 0.0
2017-Apr-21 17:56N 34°41' E 135°11'0 0.0
2017-Apr-21 17:26N 34°41' E 135°11'0 0.0
2017-Apr-21 16:56N 34°41' E 135°11'0 0.0
2017-Apr-21 16:26N 34°41' E 135°11'0 0.0
2017-Apr-21 15:50N 34°41' E 135°11'0 0.0
2017-Apr-21 15:26N 34°41' E 135°11'0 0.0
2017-Apr-21 14:56N 34°41' E 135°11'0 0.0
2017-Apr-21 14:20N 34°41' E 135°11'0 0.0
2017-Apr-21 13:20N 34°41' E 135°11'0 0.0
2017-Apr-21 12:56N 34°41' E 135°11'0 0.0
2017-Apr-21 12:20N 34°41' E 135°11'1 3.4
2017-Apr-21 12:00N 34°40' E 135°11'612.3
2017-Apr-21 11:30N 34°35' E 135°06'612.1
2017-Apr-21 11:00N 34°38' E 134°60'713.8
2017-Apr-21 10:30N 34°37' E 135°08'5 9.6
2017-Apr-21 10:00N 34°41' E 135°11'0 0.0
2017-Apr-21 09:29N 34°41' E 135°11'1 3.0
2017-Apr-21 09:00N 34°39' E 135°11'3 7.1
2017-Apr-21 08:30N 34°37' E 135°08'4 8.2
2017-Apr-21 07:58N 34°41' E 135°11'0 0.0
2017-Apr-21 07:15N 34°41' E 135°11'0 0.0
2017-Apr-21 06:45N 34°41' E 135°11'0 0.0
2017-Apr-21 06:27N 34°41' E 135°11'0 0.0
2017-Apr-21 05:57N 34°41' E 135°11'0 0.0
2017-Apr-21 05:27N 34°41' E 135°11'0 0.0
2017-Apr-21 04:57N 34°41' E 135°11'3 6.1
2017-Apr-21 04:30N 34°38' E 135°11'3 6.3
2017-Apr-21 04:00N 34°37' E 135°07'4 8.8
2017-Apr-21 03:30N 34°38' E 135°13'4 7.0
2017-Apr-21 03:00N 34°41' E 135°11'0 0.0
2017-Apr-21 02:24N 34°41' E 135°11'0 0.0
2017-Apr-21 02:00N 34°41' E 135°11'0 0.0
2017-Apr-21 01:30N 34°41' E 135°11'0 0.0
2017-Apr-21 01:00N 34°41' E 135°11'0 0.0
2017-Apr-21 00:30N 34°41' E 135°11'0 0.0
2017-Apr-20 23:48N 34°41' E 135°11'0 0.0
2017-Apr-20 23:24N 34°41' E 135°11'0 0.0
2017-Apr-20 23:00N 34°41' E 135°11'0 0.0
2017-Apr-20 22:30N 34°41' E 135°11'0 0.0
2017-Apr-20 22:00N 34°41' E 135°11'0 0.0
2017-Apr-20 21:30N 34°41' E 135°11'0 0.0
2017-Apr-20 21:00N 34°41' E 135°11'0 0.0
2017-Apr-20 20:30N 34°41' E 135°11'0 0.0
2017-Apr-20 20:00N 34°41' E 135°11'0 0.0
2017-Apr-20 19:12N 34°41' E 135°11'0 0.0
2017-Apr-20 18:54N 34°41' E 135°11'0 0.0
2017-Apr-20 18:30N 34°41' E 135°11'0 0.0
2017-Apr-20 18:00N 34°41' E 135°11'0 0.0
2017-Apr-20 17:24N 34°41' E 135°11'0 0.0
2017-Apr-20 17:00N 34°41' E 135°11'0 0.0
2017-Apr-20 16:30N 34°41' E 135°11'0 0.0
2017-Apr-20 16:00N 34°41' E 135°11'0 0.0
2017-Apr-20 15:30N 34°41' E 135°11'0 0.0
2017-Apr-20 15:00N 34°41' E 135°11'0 0.0
2017-Apr-20 14:00N 34°41' E 135°11'0 0.0
2017-Apr-20 13:30N 34°41' E 135°11'0 0.0
2017-Apr-20 13:00N 34°41' E 135°11'0 0.0
2017-Apr-20 12:30N 34°41' E 135°11'1 3.0
2017-Apr-20 12:01N 34°39' E 135°11'713.4
2017-Apr-20 11:30N 34°35' E 135°05'4 7.4
2017-Apr-20 10:56N 34°37' E 135°01'613.1
2017-Apr-20 10:30N 34°37' E 135°08'5 9.5
2017-Apr-20 10:00N 34°41' E 135°11'0 0.0
2017-Apr-20 09:26N 34°41' E 135°11'1 2.6
2017-Apr-20 09:00N 34°40' E 135°11'4 7.3
2017-Apr-20 08:30N 34°38' E 135°08'4 8.8
2017-Apr-20 08:00N 34°41' E 135°11'0 0.0
2017-Apr-20 07:29N 34°41' E 135°11'0 0.0
2017-Apr-20 06:53N 34°41' E 135°11'0 0.0
2017-Apr-20 06:23N 34°41' E 135°11'0 0.0
2017-Apr-20 05:59N 34°41' E 135°11'0 0.0
2017-Apr-20 05:29N 34°41' E 135°11'0 0.0
2017-Apr-20 04:56N 34°41' E 135°11'3 6.6
2017-Apr-20 04:30N 34°38' E 135°10'2 3.9
2017-Apr-20 04:00N 34°37' E 135°09'3 6.4
2017-Apr-20 03:30N 34°37' E 135°12'4 7.5
2017-Apr-20 03:00N 34°41' E 135°11'0 0.0
2017-Apr-20 02:31N 34°41' E 135°11'0 0.0
2017-Apr-20 01:55N 34°41' E 135°11'0 0.0
2017-Apr-20 01:31N 34°41' E 135°11'0 0.0
2017-Apr-20 00:49N 34°41' E 135°11'0 0.0
2017-Apr-20 00:07N 34°41' E 135°11'0 0.1
2017-Apr-20 00:01N 34°41' E 135°11'0 0.0
2017-Apr-19 23:31N 34°41' E 135°11'0 0.0
2017-Apr-19 22:55N 34°41' E 135°11'0 0.0
2017-Apr-19 22:25N 34°41' E 135°11'0 0.0
2017-Apr-19 21:55N 34°41' E 135°11'0 0.0
2017-Apr-19 21:25N 34°41' E 135°11'0 0.0
2017-Apr-19 21:01N 34°41' E 135°11'0 0.0
2017-Apr-19 20:31N 34°41' E 135°11'0 0.0
2017-Apr-19 19:49N 34°41' E 135°11'0 0.0
2017-Apr-19 19:31N 34°41' E 135°11'0 0.0
2017-Apr-19 18:55N 34°41' E 135°11'0 0.0
2017-Apr-19 18:01N 34°41' E 135°11'0 0.0
2017-Apr-19 17:31N 34°41' E 135°11'0 0.0
2017-Apr-19 17:01N 34°41' E 135°11'0 0.0
2017-Apr-19 16:31N 34°41' E 135°11'0 0.0
2017-Apr-19 16:00N 34°41' E 135°11'0 0.0
2017-Apr-19 15:31N 34°41' E 135°11'0 0.0
2017-Apr-19 14:54N 34°41' E 135°11'0 0.0
2017-Apr-19 14:31N 34°41' E 135°11'0 0.0
2017-Apr-19 13:24N 34°41' E 135°11'0 0.0
2017-Apr-19 12:54N 34°41' E 135°11'0 0.0
2017-Apr-19 12:24N 34°41' E 135°11'1 2.8
2017-Apr-19 12:00N 34°40' E 135°11'612.5
2017-Apr-19 11:30N 34°35' E 135°06'510.8
2017-Apr-19 11:00N 34°37' E 135°00'612.8
2017-Apr-19 10:30N 34°37' E 135°08'5 9.7
2017-Apr-19 10:01N 34°41' E 135°11'0 0.0
2017-Apr-19 09:25N 34°41' E 135°11'1 3.3
2017-Apr-19 09:00N 34°39' E 135°11'4 7.2
2017-Apr-19 08:30N 34°37' E 135°08'4 8.8
2017-Apr-19 08:00N 34°41' E 135°11'0 0.0
2017-Apr-19 07:29N 34°41' E 135°11'0 0.0
2017-Apr-19 06:29N 34°41' E 135°11'0 0.0
2017-Apr-19 05:11N 34°41' E 135°11'0 0.0
2017-Apr-19 04:56N 34°41' E 135°11'3 7.2
2017-Apr-19 04:30N 34°38' E 135°11'2 4.2
2017-Apr-19 04:00N 34°37' E 135°08'3 6.6
2017-Apr-19 03:29N 34°37' E 135°12'4 7.6
2017-Apr-19 03:00N 34°41' E 135°11'0 0.0
2017-Apr-19 02:30N 34°41' E 135°11'0 0.0
2017-Apr-19 02:00N 34°41' E 135°11'0 0.0
2017-Apr-19 01:30N 34°41' E 135°11'0 0.0
2017-Apr-19 01:00N 34°41' E 135°11'0 0.0
2017-Apr-19 00:30N 34°41' E 135°11'0 0.0
2017-Apr-19 00:00N 34°41' E 135°11'0 0.0
2017-Apr-18 23:24N 34°41' E 135°11'0 0.0
2017-Apr-18 23:00N 34°41' E 135°11'0 0.0
2017-Apr-18 22:06N 34°41' E 135°11'0 0.0
2017-Apr-18 22:00N 34°41' E 135°11'0 0.0
2017-Apr-18 21:18N 34°41' E 135°11'0 0.0
2017-Apr-18 21:00N 34°41' E 135°11'0 0.0
2017-Apr-18 20:24N 34°41' E 135°11'0 0.0
2017-Apr-18 20:00N 34°41' E 135°11'0 0.0
2017-Apr-18 19:30N 34°41' E 135°11'0 0.0
2017-Apr-18 18:48N 34°41' E 135°11'0 0.0
2017-Apr-18 18:30N 34°41' E 135°11'0 0.0
2017-Apr-18 18:00N 34°41' E 135°11'0 0.0
2017-Apr-18 17:30N 34°41' E 135°11'0 0.0
2017-Apr-18 17:00N 34°41' E 135°11'0 0.0
2017-Apr-18 16:24N 34°41' E 135°11'0 0.0
2017-Apr-18 16:00N 34°41' E 135°11'0 0.0
2017-Apr-18 15:18N 34°41' E 135°11'0 0.0
2017-Apr-18 15:00N 34°41' E 135°11'0 0.0
2017-Apr-18 14:30N 34°41' E 135°11'0 0.0
2017-Apr-18 13:30N 34°41' E 135°11'0 0.0
2017-Apr-18 12:54N 34°41' E 135°11'0 0.0
2017-Apr-18 12:30N 34°41' E 135°11'1 2.8
2017-Apr-18 12:00N 34°39' E 135°11'612.4
2017-Apr-18 11:30N 34°35' E 135°06'510.7
2017-Apr-18 11:00N 34°38' E 135°00'612.8
2017-Apr-18 10:30N 34°37' E 135°08'5 9.9
2017-Apr-18 10:00N 34°41' E 135°11'  

Dump ship's entire track history